createdAt,value
2019-04-11T00:00:50.470Z,5.49
2019-04-11T00:01:52.682Z,5.45
2019-04-11T00:02:49.091Z,5.49
2019-04-11T00:03:49.416Z,5.49
2019-04-11T00:04:48.926Z,5.41
2019-04-11T00:05:48.914Z,5.49
2019-04-11T00:06:49.905Z,5.37
2019-04-11T00:07:48.897Z,5.34
2019-04-11T00:08:48.899Z,5.35
2019-04-11T00:09:49.310Z,5.32
2019-04-11T00:10:49.200Z,5.28
2019-04-11T00:11:48.857Z,5.32
2019-04-11T00:12:48.845Z,5.25
2019-04-11T00:13:49.501Z,5.34
2019-04-11T00:14:48.820Z,5.28
2019-04-11T00:15:48.867Z,5.23
2019-04-11T00:16:49.875Z,5.20
2019-04-11T00:17:48.797Z,5.23
2019-04-11T00:18:49.219Z,5.22
2019-04-11T00:19:48.791Z,5.23
2019-04-11T00:20:48.756Z,5.16
2019-04-11T00:21:48.947Z,5.16
2019-04-11T00:22:50.108Z,5.20
2019-04-11T00:23:48.728Z,5.16
2019-04-11T00:24:49.186Z,5.12
2019-04-11T00:25:49.574Z,5.07
2019-04-11T00:26:48.733Z,5.10
2019-04-11T00:27:48.934Z,4.99
2019-04-11T00:28:48.689Z,5.10
2019-04-11T00:29:48.680Z,5.10
2019-04-11T00:30:48.653Z,5.09
2019-04-11T00:31:49.546Z,5.07
2019-04-11T00:32:49.689Z,5.05
2019-04-11T00:33:48.758Z,5.05
2019-04-11T00:34:48.637Z,5.02
2019-04-11T00:35:48.605Z,5.10
2019-04-11T00:36:48.590Z,4.96
2019-04-11T00:37:49.522Z,4.99
2019-04-11T00:38:48.568Z,5.01
2019-04-11T00:39:48.561Z,4.95
2019-04-11T00:40:49.139Z,5.01
2019-04-11T00:41:48.537Z,4.96
2019-04-11T00:42:48.539Z,4.98
2019-04-11T00:43:48.517Z,4.98
2019-04-11T00:44:49.445Z,4.94
2019-04-11T00:45:48.759Z,4.98
2019-04-11T00:46:48.881Z,4.99
2019-04-11T00:47:49.053Z,4.89
2019-04-11T00:48:48.462Z,4.83
2019-04-11T00:49:48.523Z,4.91
2019-04-11T00:50:49.567Z,4.94
2019-04-11T00:51:48.430Z,4.95
2019-04-11T00:52:49.565Z,4.92
2019-04-11T00:53:48.406Z,4.98
2019-04-11T00:54:49.103Z,4.83
2019-04-11T00:55:48.427Z,4.86
2019-04-11T00:56:48.514Z,4.77
2019-04-11T00:57:49.443Z,4.76
2019-04-11T00:58:48.356Z,4.75
2019-04-11T00:59:48.819Z,4.72
2019-04-11T01:00:48.351Z,4.72
2019-04-11T01:01:49.934Z,4.75
2019-04-11T01:02:49.517Z,4.70
2019-04-11T01:03:49.470Z,4.65
2019-04-11T01:04:48.776Z,4.62
2019-04-11T01:05:48.298Z,4.65
2019-04-11T01:06:48.270Z,4.67
2019-04-11T01:07:49.191Z,4.62
2019-04-11T01:08:48.258Z,4.61
2019-04-11T01:09:48.604Z,4.61
2019-04-11T01:10:48.245Z,4.61
2019-04-11T01:11:48.219Z,4.64
2019-04-11T01:12:49.777Z,4.51
2019-04-11T01:13:52.391Z,4.57
2019-04-11T01:14:49.182Z,4.54
2019-04-11T01:15:48.966Z,4.52
2019-04-11T01:16:48.588Z,4.54
2019-04-11T01:17:48.159Z,4.54
2019-04-11T01:18:48.139Z,4.54
2019-04-11T01:19:49.046Z,4.52
2019-04-11T01:20:48.120Z,4.52
2019-04-11T01:21:48.826Z,4.54
2019-04-11T01:22:48.713Z,4.52
2019-04-11T01:23:48.089Z,4.46
2019-04-11T01:24:48.178Z,4.51
2019-04-11T01:25:48.555Z,4.44
2019-04-11T01:26:48.084Z,4.47
2019-04-11T01:27:48.050Z,4.40
2019-04-11T01:28:48.880Z,4.46
2019-04-11T01:29:48.024Z,4.42
2019-04-11T01:30:55.595Z,4.40
2019-04-11T01:31:48.010Z,4.43
2019-04-11T01:32:48.663Z,4.43
2019-04-11T01:33:48.387Z,4.33
2019-04-11T01:34:48.757Z,4.43
2019-04-11T01:35:47.962Z,4.43
2019-04-11T01:36:48.035Z,4.34
2019-04-11T01:37:48.174Z,4.28
2019-04-11T01:38:48.430Z,4.33
2019-04-11T01:39:47.932Z,4.33
2019-04-11T01:40:47.910Z,4.29
2019-04-11T01:41:48.864Z,4.28
2019-04-11T01:42:47.899Z,4.26
2019-04-11T01:43:56.418Z,4.32
2019-04-11T01:44:49.297Z,4.29
2019-04-11T01:45:47.858Z,4.29
2019-04-11T01:46:48.576Z,4.25
2019-04-11T01:47:47.970Z,4.26
2019-04-11T01:48:47.962Z,4.33
2019-04-11T01:49:48.239Z,4.29
2019-04-11T01:50:47.805Z,4.25
2019-04-11T01:51:47.812Z,4.22
2019-04-11T01:52:48.750Z,4.18
2019-04-11T01:53:48.736Z,4.16
2019-04-11T01:54:47.981Z,4.07
2019-04-11T01:55:48.358Z,4.10
2019-04-11T01:56:47.761Z,4.10
2019-04-11T01:57:47.733Z,4.06
2019-04-11T01:58:48.877Z,4.08
2019-04-11T01:59:47.943Z,4.06
2019-04-11T02:00:48.713Z,4.15
2019-04-11T02:01:47.733Z,4.00
2019-04-11T02:02:47.678Z,4.04
2019-04-11T02:03:47.671Z,4.01
2019-04-11T02:04:48.112Z,4.00
2019-04-11T02:05:47.646Z,4.04
2019-04-11T02:06:47.876Z,3.94
2019-04-11T02:07:47.653Z,3.96
2019-04-11T02:08:47.615Z,4.01
2019-04-11T02:09:48.449Z,3.88
2019-04-11T02:10:48.674Z,3.94
2019-04-11T02:11:47.744Z,3.94
2019-04-11T02:12:47.714Z,3.89
2019-04-11T02:13:48.171Z,3.88
2019-04-11T02:14:47.985Z,3.85
2019-04-11T02:15:48.384Z,3.82
2019-04-11T02:16:47.539Z,3.82
2019-04-11T02:17:48.724Z,3.85
2019-04-11T02:18:47.758Z,3.83
2019-04-11T02:19:48.077Z,3.83
2019-04-11T02:20:47.490Z,3.85
2019-04-11T02:21:47.486Z,3.86
2019-04-11T02:22:48.683Z,3.79
2019-04-11T02:23:47.666Z,3.79
2019-04-11T02:24:48.003Z,3.80
2019-04-11T02:25:47.454Z,3.75
2019-04-11T02:26:47.430Z,3.83
2019-04-11T02:27:48.390Z,3.82
2019-04-11T02:28:47.428Z,3.76
2019-04-11T02:29:47.402Z,3.71
2019-04-11T02:30:48.441Z,3.68
2019-04-11T02:31:47.375Z,3.76
2019-04-11T02:32:49.351Z,3.78
2019-04-11T02:33:48.809Z,3.79
2019-04-11T02:34:48.674Z,3.80
2019-04-11T02:35:49.211Z,3.80
2019-04-11T02:36:48.929Z,3.72
2019-04-11T02:37:49.584Z,3.70
2019-04-11T02:38:53.460Z,3.76
2019-04-11T02:39:49.389Z,3.65
2019-04-11T02:40:49.090Z,3.64
2019-04-11T02:41:47.531Z,3.65
2019-04-11T02:42:47.628Z,3.49
2019-04-11T02:43:48.913Z,3.49
2019-04-11T02:45:03.507Z,3.50
2019-04-11T02:45:58.077Z,3.53
2019-04-11T02:46:59.888Z,3.53
2019-04-11T02:47:50.779Z,3.57
2019-04-11T02:48:47.370Z,3.47
2019-04-11T02:49:47.728Z,3.46
2019-04-11T02:50:47.831Z,3.42
2019-04-11T02:51:49.053Z,3.40
2019-04-11T02:52:47.457Z,3.43
2019-04-11T02:53:47.393Z,3.39
2019-04-11T02:54:47.417Z,3.39
2019-04-11T02:55:47.439Z,3.39
2019-04-11T02:56:50.206Z,3.40
2019-04-11T02:57:48.296Z,3.36
2019-04-11T02:58:48.275Z,3.40
2019-04-11T02:59:48.918Z,3.34
2019-04-11T03:00:55.909Z,3.36
2019-04-11T03:01:48.608Z,3.36
2019-04-11T03:02:47.875Z,3.36
2019-04-11T03:03:47.437Z,3.33
2019-04-11T03:04:48.129Z,3.31
2019-04-11T03:05:47.120Z,3.33
2019-04-11T03:06:47.965Z,3.23
2019-04-11T03:07:47.736Z,3.25
2019-04-11T03:08:48.820Z,3.28
2019-04-11T03:09:48.827Z,3.34
2019-04-11T03:10:46.982Z,3.36
2019-04-11T03:11:47.824Z,3.33
2019-04-11T03:12:48.405Z,3.30
2019-04-11T03:13:48.531Z,3.23
2019-04-11T03:15:05.421Z,3.36
2019-04-11T03:16:02.185Z,3.25
2019-04-11T03:16:57.601Z,3.36
2019-04-11T03:17:49.403Z,3.33
2019-04-11T03:19:05.607Z,3.27
2019-04-11T03:20:02.767Z,3.34
2019-04-11T03:20:55.383Z,3.34
2019-04-11T03:21:47.866Z,3.31
2019-04-11T03:22:53.026Z,3.34
2019-04-11T03:23:49.326Z,3.28
2019-04-11T03:24:47.057Z,3.30
2019-04-11T03:25:46.988Z,3.33
2019-04-11T03:26:46.878Z,3.25
2019-04-11T03:27:47.528Z,3.33
2019-04-11T03:28:49.528Z,3.23
2019-04-11T03:29:49.357Z,3.21
2019-04-11T03:31:13.127Z,3.24
2019-04-11T03:32:33.457Z,3.27
2019-04-11T03:33:49.722Z,3.33
2019-04-11T03:34:39.839Z,3.25
2019-04-11T03:37:19.483Z,3.27
2019-04-11T03:38:17.474Z,3.23
2019-04-11T03:39:13.107Z,3.33
2019-04-11T03:40:07.996Z,3.23
2019-04-11T03:41:04.307Z,3.27
2019-04-11T03:42:05.853Z,3.23
2019-04-11T03:43:02.860Z,3.20
2019-04-11T03:43:58.204Z,3.16
2019-04-11T03:45:03.400Z,3.13
2019-04-11T03:46:04.051Z,3.23
2019-04-11T03:47:06.793Z,3.20
2019-04-11T03:48:02.450Z,3.25
2019-04-11T03:49:00.154Z,3.21
2019-04-11T03:49:53.233Z,3.16
2019-04-11T03:50:49.051Z,3.15
2019-04-11T03:51:47.991Z,3.27
2019-04-11T03:52:46.732Z,3.25
2019-04-11T03:53:47.250Z,3.15
2019-04-11T03:54:47.508Z,3.27
2019-04-11T03:55:47.451Z,3.23
2019-04-11T03:56:46.487Z,3.16
2019-04-11T03:57:46.980Z,3.21
2019-04-11T03:58:48.083Z,3.24
2019-04-11T03:59:47.846Z,3.21
2019-04-11T04:00:46.859Z,3.18
2019-04-11T04:01:48.226Z,3.13
2019-04-11T04:02:46.821Z,3.12
2019-04-11T04:03:46.755Z,3.15
2019-04-11T04:04:46.385Z,3.15
2019-04-11T04:05:46.374Z,3.20
2019-04-11T04:06:47.884Z,3.15
2019-04-11T04:07:46.631Z,3.18
2019-04-11T04:08:46.659Z,3.13
2019-04-11T04:09:46.347Z,3.07
2019-04-11T04:10:47.722Z,3.05
2019-04-11T04:11:46.917Z,2.98
2019-04-11T04:12:47.523Z,2.92
2019-04-11T04:13:47.742Z,2.98
2019-04-11T04:14:46.741Z,2.97
2019-04-11T04:16:01.798Z,2.98
2019-04-11T04:16:50.217Z,2.88
2019-04-11T04:17:47.678Z,2.94
2019-04-11T04:18:47.699Z,2.92
2019-04-11T04:19:47.345Z,2.84
2019-04-11T04:20:46.263Z,2.85
2019-04-11T04:21:47.047Z,2.79
2019-04-11T04:22:48.086Z,2.82
2019-04-11T04:23:46.204Z,2.79
2019-04-11T04:24:47.556Z,2.84
2019-04-11T04:25:47.326Z,2.84
2019-04-11T04:26:46.153Z,2.82
2019-04-11T04:27:46.831Z,2.81
2019-04-11T04:28:47.574Z,2.76
2019-04-11T04:29:49.601Z,2.73
2019-04-11T04:30:47.160Z,2.66
2019-04-11T04:31:46.671Z,2.66
2019-04-11T04:32:47.122Z,2.58
2019-04-11T04:33:47.672Z,2.63
2019-04-11T04:34:46.479Z,2.63
2019-04-11T04:35:47.508Z,2.59
2019-04-11T04:36:47.256Z,2.59
2019-04-11T04:37:47.467Z,2.58
2019-04-11T04:38:46.447Z,2.56
2019-04-11T04:39:47.836Z,2.59
2019-04-11T04:41:00.366Z,2.51
2019-04-11T04:41:55.401Z,2.52
2019-04-11T04:42:52.075Z,2.46
2019-04-11T04:43:48.280Z,2.52
2019-04-11T04:44:46.686Z,2.52
2019-04-11T04:46:05.130Z,2.45
2019-04-11T04:46:58.589Z,2.56
2019-04-11T04:47:54.258Z,2.52
2019-04-11T04:48:48.890Z,2.49
2019-04-11T04:49:46.536Z,2.58
2019-04-11T04:50:46.792Z,2.55
2019-04-11T04:51:47.650Z,2.56
2019-04-11T04:52:45.873Z,2.48
2019-04-11T04:53:45.863Z,2.46
2019-04-11T04:54:46.582Z,2.46
2019-04-11T04:55:47.703Z,2.49
2019-04-11T04:56:47.316Z,2.51
2019-04-11T04:57:45.821Z,2.45
2019-04-11T04:58:46.751Z,2.40
2019-04-11T04:59:46.935Z,2.45
2019-04-11T05:00:45.821Z,2.41
2019-04-11T05:01:48.063Z,2.44
2019-04-11T05:02:45.770Z,2.40
2019-04-11T05:03:46.784Z,2.38
2019-04-11T05:04:45.931Z,2.31
2019-04-11T05:05:46.565Z,2.38
2019-04-11T05:06:48.164Z,2.33
2019-04-11T05:07:46.839Z,2.40
2019-04-11T05:08:47.047Z,2.38
2019-04-11T05:09:46.059Z,2.40
2019-04-11T05:10:47.066Z,2.35
2019-04-11T05:11:46.667Z,2.35
2019-04-11T05:12:46.132Z,2.38
2019-04-11T05:13:49.260Z,2.31
2019-04-11T05:14:47.790Z,2.38
2019-04-11T05:15:45.655Z,2.37
2019-04-11T05:16:46.117Z,2.34
2019-04-11T05:17:46.147Z,2.37
2019-04-11T05:18:45.610Z,2.31
2019-04-11T05:19:46.576Z,2.35
2019-04-11T05:20:46.336Z,2.34
2019-04-11T05:21:45.698Z,2.30
2019-04-11T05:22:45.571Z,2.34
2019-04-11T05:23:45.982Z,2.28
2019-04-11T05:24:45.539Z,2.31
2019-04-11T05:25:46.395Z,2.38
2019-04-11T05:26:45.994Z,2.38
2019-04-11T05:27:45.524Z,2.26
2019-04-11T05:28:45.783Z,2.35
2019-04-11T05:29:45.887Z,2.28
2019-04-11T05:30:45.494Z,2.27
2019-04-11T05:31:45.470Z,2.27
2019-04-11T05:32:45.467Z,2.26
2019-04-11T05:33:45.679Z,2.30
2019-04-11T05:34:45.666Z,2.17
2019-04-11T05:35:45.453Z,2.30
2019-04-11T05:36:45.442Z,2.26
2019-04-11T05:37:45.418Z,2.30
2019-04-11T05:38:46.382Z,2.27
2019-04-11T05:39:45.382Z,2.26
2019-04-11T05:40:46.121Z,2.22
2019-04-11T05:41:48.060Z,2.38
2019-04-11T05:42:51.245Z,2.35
2019-04-11T05:43:47.379Z,2.38
2019-04-11T05:44:45.362Z,2.40
2019-04-11T05:45:45.771Z,2.38
2019-04-11T05:46:52.411Z,2.33
2019-04-11T05:47:50.907Z,2.34
2019-04-11T05:48:47.224Z,2.33
2019-04-11T05:49:46.542Z,2.45
2019-04-11T05:50:48.432Z,2.35
2019-04-11T05:51:47.604Z,2.38
2019-04-11T05:52:45.249Z,2.45
2019-04-11T05:53:46.072Z,2.41
2019-04-11T05:54:48.913Z,2.48
2019-04-11T05:55:46.874Z,2.46
2019-04-11T05:56:46.451Z,2.46
2019-04-11T05:57:46.913Z,2.51
2019-04-11T05:58:47.380Z,2.51
2019-04-11T05:59:48.759Z,2.55
2019-04-11T06:00:46.512Z,2.52
2019-04-11T06:01:45.155Z,2.48
2019-04-11T06:02:45.634Z,2.64
2019-04-11T06:03:45.839Z,2.63
2019-04-11T06:04:48.912Z,2.66
2019-04-11T06:05:45.139Z,2.63
2019-04-11T06:06:45.104Z,2.69
2019-04-11T06:07:47.643Z,2.74
2019-04-11T06:08:46.179Z,2.81
2019-04-11T06:09:46.161Z,2.73
2019-04-11T06:10:46.456Z,2.84
2019-04-11T06:11:45.306Z,2.79
2019-04-11T06:12:45.533Z,2.88
2019-04-11T06:13:45.031Z,2.92
2019-04-11T06:14:45.026Z,2.92
2019-04-11T06:15:45.034Z,2.97
2019-04-11T06:16:49.481Z,3.06
2019-04-11T06:17:46.214Z,3.10
2019-04-11T06:18:45.850Z,3.13
2019-04-11T06:19:45.847Z,3.15
2019-04-11T06:20:45.227Z,3.18
2019-04-11T06:21:44.953Z,3.31
2019-04-11T06:22:45.604Z,3.24
2019-04-11T06:23:45.668Z,3.36
2019-04-11T06:24:44.913Z,3.40
2019-04-11T06:25:46.786Z,3.46
2019-04-11T06:26:45.020Z,3.47
2019-04-11T06:27:45.553Z,3.50
2019-04-11T06:28:44.869Z,3.60
2019-04-11T06:29:45.187Z,3.82
2019-04-11T06:30:44.857Z,3.76
2019-04-11T06:31:45.403Z,3.86
2019-04-11T06:32:45.851Z,3.80
2019-04-11T06:33:44.905Z,3.86
2019-04-11T06:34:44.820Z,3.97
2019-04-11T06:35:44.793Z,4.01
2019-04-11T06:36:45.245Z,4.08
2019-04-11T06:37:45.683Z,4.29
2019-04-11T06:38:44.970Z,4.32
2019-04-11T06:39:45.323Z,4.32
2019-04-11T06:40:44.739Z,4.39
2019-04-11T06:41:44.739Z,4.46
2019-04-11T06:42:45.513Z,4.61
2019-04-11T06:43:44.730Z,4.69
2019-04-11T06:44:45.951Z,4.79
2019-04-11T06:45:44.692Z,4.89
2019-04-11T06:46:53.893Z,4.83
2019-04-11T06:47:45.666Z,4.89
2019-04-11T06:48:45.501Z,4.96
2019-04-11T06:49:44.688Z,4.94
2019-04-11T06:50:44.639Z,5.14
2019-04-11T06:51:44.622Z,5.19
2019-04-11T06:52:45.345Z,5.20
2019-04-11T06:53:44.629Z,5.27
2019-04-11T06:54:45.408Z,5.28
2019-04-11T06:55:44.774Z,5.30
2019-04-11T06:56:45.475Z,5.38
2019-04-11T06:57:45.820Z,5.50
2019-04-11T06:58:45.755Z,5.52
2019-04-11T06:59:44.907Z,5.64
2019-04-11T07:00:45.293Z,5.70
2019-04-11T07:01:45.426Z,5.63
2019-04-11T07:02:44.552Z,5.71
2019-04-11T07:03:44.987Z,5.75
2019-04-11T07:04:44.485Z,5.83
2019-04-11T07:05:44.475Z,5.83
2019-04-11T07:06:44.467Z,5.86
2019-04-11T07:07:45.125Z,5.93
2019-04-11T07:08:44.792Z,5.96
2019-04-11T07:09:45.007Z,5.89
2019-04-11T07:10:44.698Z,6.01
2019-04-11T07:11:44.827Z,6.07
2019-04-11T07:12:44.406Z,6.16
2019-04-11T07:13:45.473Z,6.16
2019-04-11T07:14:45.507Z,6.21
2019-04-11T07:15:44.365Z,6.16
2019-04-11T07:16:44.666Z,6.26
2019-04-11T07:17:44.355Z,6.19
2019-04-11T07:18:44.346Z,6.26
2019-04-11T07:19:44.479Z,6.26
2019-04-11T07:20:45.564Z,6.32
2019-04-11T07:21:44.318Z,6.43
2019-04-11T07:22:44.293Z,6.40
2019-04-11T07:23:44.736Z,6.44
2019-04-11T07:24:45.291Z,6.43
2019-04-11T07:25:45.154Z,6.43
2019-04-11T07:26:44.253Z,6.44
2019-04-11T07:27:45.079Z,6.59
2019-04-11T07:28:44.229Z,6.59
2019-04-11T07:29:44.322Z,6.59
2019-04-11T07:30:45.239Z,6.58
2019-04-11T07:31:44.351Z,6.59
2019-04-11T07:32:45.089Z,6.59
2019-04-11T07:33:45.071Z,6.63
2019-04-11T07:34:44.176Z,6.65
2019-04-11T07:35:45.155Z,6.71
2019-04-11T07:36:44.167Z,6.73
2019-04-11T07:37:44.719Z,6.72
2019-04-11T07:38:45.482Z,6.73
2019-04-11T07:39:45.014Z,6.80
2019-04-11T07:40:44.105Z,6.83
2019-04-11T07:41:45.610Z,6.94
2019-04-11T07:42:44.109Z,6.90
2019-04-11T07:43:44.072Z,6.97
2019-04-11T07:44:45.135Z,6.99
2019-04-11T07:45:44.055Z,7.02
2019-04-11T07:46:44.086Z,6.98
2019-04-11T07:47:44.041Z,7.13
2019-04-11T07:48:44.708Z,7.12
2019-04-11T07:49:44.984Z,7.08
2019-04-11T07:50:44.417Z,7.27
2019-04-11T07:51:45.036Z,7.29
2019-04-11T07:52:44.824Z,7.26
2019-04-11T07:53:43.967Z,7.26
2019-04-11T07:54:43.965Z,7.31
2019-04-11T07:55:44.459Z,7.32
2019-04-11T07:56:44.268Z,7.31
2019-04-11T07:57:44.731Z,7.29
2019-04-11T07:58:43.916Z,7.41
2019-04-11T07:59:43.904Z,7.47
2019-04-11T08:00:47.221Z,7.53
2019-04-11T08:01:44.881Z,7.58
2019-04-11T08:02:43.890Z,7.62
2019-04-11T08:03:44.645Z,7.66
2019-04-11T08:04:43.853Z,7.67
2019-04-11T08:05:44.630Z,7.67
2019-04-11T08:06:43.843Z,7.74
2019-04-11T08:07:44.832Z,7.74
2019-04-11T08:08:43.812Z,7.67
2019-04-11T08:09:43.914Z,7.72
2019-04-11T08:10:43.802Z,7.84
2019-04-11T08:11:44.261Z,7.93
2019-04-11T08:12:43.809Z,7.90
2019-04-11T08:13:44.822Z,7.99
2019-04-11T08:14:44.608Z,8.00
2019-04-11T08:15:43.942Z,7.94
2019-04-11T08:16:44.879Z,8.02
2019-04-11T08:17:44.478Z,8.15
2019-04-11T08:18:43.724Z,8.17
2019-04-11T08:19:43.835Z,8.29
2019-04-11T08:20:43.686Z,8.28
2019-04-11T08:21:44.083Z,8.42
2019-04-11T08:22:43.664Z,8.50
2019-04-11T08:23:45.707Z,8.57
2019-04-11T08:24:44.802Z,8.57
2019-04-11T08:25:43.631Z,8.58
2019-04-11T08:26:44.365Z,8.55
2019-04-11T08:27:56.018Z,8.55
2019-04-11T08:28:45.625Z,8.57
2019-04-11T08:29:44.360Z,8.58
2019-04-11T08:30:43.581Z,8.58
2019-04-11T08:31:44.528Z,8.78
2019-04-11T08:32:44.223Z,8.81
2019-04-11T08:33:43.559Z,8.81
2019-04-11T08:34:43.775Z,8.91
2019-04-11T08:35:44.101Z,8.94
2019-04-11T08:36:44.187Z,8.87
2019-04-11T08:37:43.507Z,8.93
2019-04-11T08:38:44.613Z,9.13
2019-04-11T08:39:43.503Z,9.13
2019-04-11T08:40:43.472Z,9.21
2019-04-11T08:41:44.066Z,9.30
2019-04-11T08:42:43.455Z,9.39
2019-04-11T08:43:43.449Z,9.45
2019-04-11T08:44:45.179Z,9.53
2019-04-11T08:45:44.448Z,9.52
2019-04-11T08:46:43.416Z,9.45
2019-04-11T08:47:47.583Z,9.58
2019-04-11T08:48:45.294Z,9.52
2019-04-11T08:49:43.380Z,9.61
2019-04-11T08:50:43.421Z,9.78
2019-04-11T08:51:43.357Z,9.64
2019-04-11T08:52:44.414Z,9.83
2019-04-11T08:53:43.335Z,9.86
2019-04-11T08:54:43.842Z,9.93
2019-04-11T08:55:50.116Z,10.01
2019-04-11T08:56:45.385Z,10.14
2019-04-11T08:57:44.384Z,10.17
2019-04-11T08:58:43.284Z,10.12
2019-04-11T08:59:43.991Z,10.25
2019-04-11T09:00:43.289Z,10.33
2019-04-11T09:01:44.301Z,10.36
2019-04-11T09:02:43.241Z,10.46
2019-04-11T09:03:44.084Z,10.46
2019-04-11T09:04:43.222Z,10.59
2019-04-11T09:05:43.208Z,10.68
2019-04-11T09:06:43.228Z,10.78
2019-04-11T09:07:43.535Z,10.84
2019-04-11T09:08:43.187Z,10.78
2019-04-11T09:09:43.258Z,10.81
2019-04-11T09:10:44.288Z,10.95
2019-04-11T09:11:43.205Z,11.03
2019-04-11T09:12:43.141Z,10.94
2019-04-11T09:13:43.998Z,10.95
2019-04-11T09:14:44.311Z,11.03
2019-04-11T09:15:43.288Z,11.13
2019-04-11T09:16:43.093Z,11.25
2019-04-11T09:17:55.208Z,11.27
2019-04-11T09:18:44.145Z,11.20
2019-04-11T09:19:43.120Z,11.25
2019-04-11T09:20:43.424Z,11.21
2019-04-11T09:21:43.051Z,11.25
2019-04-11T09:22:43.062Z,11.34
2019-04-11T09:23:43.973Z,11.41
2019-04-11T09:24:43.237Z,11.21
2019-04-11T09:25:43.504Z,11.13
2019-04-11T09:26:42.994Z,11.16
2019-04-11T09:27:42.995Z,11.16
2019-04-11T09:28:44.074Z,11.21
2019-04-11T09:29:43.024Z,10.99
2019-04-11T09:30:43.159Z,10.88
2019-04-11T09:31:43.897Z,10.96
2019-04-11T09:32:42.953Z,10.76
2019-04-11T09:33:42.918Z,10.59
2019-04-11T09:34:44.038Z,10.60
2019-04-11T09:35:43.666Z,10.59
2019-04-11T09:36:42.967Z,10.68
2019-04-11T09:37:44.249Z,10.88
2019-04-11T09:38:42.882Z,11.06
2019-04-11T09:39:43.510Z,11.10
2019-04-11T09:40:43.764Z,11.19
2019-04-11T09:41:42.835Z,11.27
2019-04-11T09:42:43.097Z,11.39
2019-04-11T09:43:42.827Z,11.32
2019-04-11T09:44:42.802Z,11.39
2019-04-11T09:45:43.920Z,11.38
2019-04-11T09:46:42.830Z,11.57
2019-04-11T09:47:42.764Z,11.75
2019-04-11T09:48:44.142Z,11.75
2019-04-11T09:49:42.948Z,11.93
2019-04-11T09:50:42.776Z,11.90
2019-04-11T09:51:42.731Z,11.82
2019-04-11T09:52:42.712Z,11.65
2019-04-11T09:53:43.039Z,11.52
2019-04-11T09:54:42.693Z,11.49
2019-04-11T09:55:43.705Z,11.52
2019-04-11T09:56:43.014Z,11.57
2019-04-11T09:57:42.659Z,11.78
2019-04-11T09:58:42.650Z,11.87
2019-04-11T09:59:42.665Z,12.06
2019-04-11T10:00:43.127Z,12.11
2019-04-11T10:01:42.976Z,12.33
2019-04-11T10:02:42.606Z,12.54
2019-04-11T10:03:43.001Z,12.62
2019-04-11T10:04:50.185Z,12.64
2019-04-11T10:05:42.669Z,12.74
2019-04-11T10:06:42.566Z,12.70
2019-04-11T10:07:42.560Z,12.63
2019-04-11T10:08:43.668Z,12.41
2019-04-11T10:09:42.541Z,12.27
2019-04-11T10:10:44.591Z,12.24
2019-04-11T10:11:42.514Z,12.31
2019-04-11T10:12:42.611Z,12.37
2019-04-11T10:13:42.815Z,12.34
2019-04-11T10:14:43.674Z,12.49
2019-04-11T10:15:43.190Z,12.57
2019-04-11T10:16:42.475Z,12.71
2019-04-11T10:17:42.683Z,12.81
2019-04-11T10:18:43.942Z,12.88
2019-04-11T10:19:42.445Z,13.04
2019-04-11T10:20:42.624Z,13.18
2019-04-11T10:21:43.594Z,13.27
2019-04-11T10:22:43.790Z,13.33
2019-04-11T10:23:43.034Z,13.41
2019-04-11T10:24:42.934Z,13.27
2019-04-11T10:25:43.374Z,13.18
2019-04-11T10:26:42.426Z,13.07
2019-04-11T10:27:42.353Z,12.99
2019-04-11T10:28:42.341Z,12.93
2019-04-11T10:29:42.364Z,12.60
2019-04-11T10:30:42.323Z,12.41
2019-04-11T10:31:42.343Z,12.60
2019-04-11T10:32:43.365Z,12.60
2019-04-11T10:33:42.283Z,12.82
2019-04-11T10:34:42.282Z,12.85
2019-04-11T10:35:42.774Z,12.79
2019-04-11T10:36:43.226Z,12.84
2019-04-11T10:37:42.274Z,12.82
2019-04-11T10:38:42.243Z,13.00
2019-04-11T10:39:42.227Z,13.15
2019-04-11T10:40:42.207Z,13.33
2019-04-11T10:41:42.195Z,13.24
2019-04-11T10:42:42.520Z,13.38
2019-04-11T10:43:42.563Z,13.36
2019-04-11T10:44:42.365Z,13.46
2019-04-11T10:45:42.733Z,13.41
2019-04-11T10:46:42.185Z,13.32
2019-04-11T10:47:42.162Z,13.36
2019-04-11T10:48:45.016Z,13.29
2019-04-11T10:49:42.166Z,13.21
2019-04-11T10:50:42.425Z,13.17
2019-04-11T10:51:42.344Z,13.24
2019-04-11T10:52:42.532Z,13.30
2019-04-11T10:53:42.075Z,13.24
2019-04-11T10:54:42.068Z,13.22
2019-04-11T10:55:42.063Z,13.24
2019-04-11T10:56:43.173Z,13.33
2019-04-11T10:57:42.384Z,13.18
2019-04-11T10:58:42.717Z,13.20
2019-04-11T10:59:42.941Z,13.11
2019-04-11T11:00:43.142Z,13.06
2019-04-11T11:01:42.309Z,13.04
2019-04-11T11:02:41.977Z,13.03
2019-04-11T11:03:43.005Z,13.07
2019-04-11T11:04:43.005Z,13.30
2019-04-11T11:05:42.912Z,13.33
2019-04-11T11:06:42.035Z,13.36
2019-04-11T11:07:42.503Z,13.36
2019-04-11T11:08:41.936Z,13.47
2019-04-11T11:09:42.190Z,13.58
2019-04-11T11:10:41.935Z,13.63
2019-04-11T11:11:41.873Z,13.65
2019-04-11T11:12:41.866Z,13.74
2019-04-11T11:13:42.440Z,13.73
2019-04-11T11:14:42.893Z,13.81
2019-04-11T11:15:41.980Z,13.80
2019-04-11T11:16:44.866Z,13.80
2019-04-11T11:18:00.974Z,13.74
2019-04-11T11:19:14.963Z,13.71
2019-04-11T11:19:55.235Z,13.54
2019-04-11T11:20:51.350Z,13.27
2019-04-11T11:21:43.029Z,13.30
2019-04-11T11:22:42.969Z,13.24
2019-04-11T11:23:42.830Z,12.99
2019-04-11T11:24:42.097Z,12.99
2019-04-11T11:25:42.269Z,13.00
2019-04-11T11:26:41.724Z,13.04
2019-04-11T11:27:41.721Z,13.33
2019-04-11T11:28:43.040Z,13.29
2019-04-11T11:29:42.957Z,13.18
2019-04-11T11:30:41.696Z,13.02
2019-04-11T11:31:42.745Z,12.96
2019-04-11T11:32:41.657Z,13.11
2019-04-11T11:33:42.671Z,13.09
2019-04-11T11:34:41.653Z,13.29
2019-04-11T11:35:42.808Z,13.33
2019-04-11T11:36:41.665Z,13.14
2019-04-11T11:37:41.725Z,13.20
2019-04-11T11:38:41.908Z,13.41
2019-04-11T11:39:41.600Z,13.46
2019-04-11T11:40:43.208Z,13.63
2019-04-11T11:41:42.526Z,13.81
2019-04-11T11:42:42.152Z,13.83
2019-04-11T11:43:41.537Z,13.94
2019-04-11T11:44:41.551Z,14.02
2019-04-11T11:45:41.662Z,13.96
2019-04-11T11:46:42.632Z,13.89
2019-04-11T11:47:41.997Z,13.76
2019-04-11T11:48:41.784Z,13.88
2019-04-11T11:49:51.706Z,13.84
2019-04-11T11:50:42.734Z,13.76
2019-04-11T11:52:57.439Z,13.84
2019-04-11T11:53:57.448Z,13.84
2019-04-11T11:54:57.168Z,13.91
2019-04-11T11:55:57.905Z,13.92
2019-04-11T11:56:58.130Z,13.79
2019-04-11T11:57:57.300Z,13.71
2019-04-11T11:58:58.577Z,13.69
2019-04-11T11:59:57.104Z,13.69
2019-04-11T12:00:58.679Z,13.80
2019-04-11T12:01:57.062Z,14.07
2019-04-11T12:02:57.053Z,14.13
2019-04-11T12:04:00.136Z,14.37
2019-04-11T12:04:57.058Z,14.42
2019-04-11T12:05:57.040Z,14.56
2019-04-11T12:07:01.829Z,14.61
2019-04-11T12:07:58.209Z,14.46
2019-04-11T12:08:58.138Z,14.31
2019-04-11T12:09:56.976Z,14.17
2019-04-11T12:10:57.571Z,14.17
2019-04-11T12:11:57.056Z,14.02
2019-04-11T12:12:56.951Z,14.01
2019-04-11T12:13:57.885Z,14.04
2019-04-11T12:14:56.923Z,14.13
2019-04-11T12:15:57.372Z,14.16
2019-04-11T12:17:01.341Z,14.14
2019-04-11T12:17:57.897Z,14.20
2019-04-11T12:18:56.879Z,14.32
2019-04-11T12:20:02.576Z,14.21
2019-04-11T12:20:59.198Z,14.31
2019-04-11T12:21:56.852Z,14.43
2019-04-11T12:22:57.018Z,14.49
2019-04-11T12:24:02.567Z,14.46
2019-04-11T12:24:58.674Z,14.53
2019-04-11T12:25:57.733Z,14.38
2019-04-11T12:26:57.070Z,14.46
2019-04-11T12:27:56.782Z,14.31
2019-04-11T12:28:57.591Z,14.37
2019-04-11T12:29:57.569Z,14.29
2019-04-11T12:31:00.592Z,14.16
2019-04-11T12:31:58.442Z,14.17
2019-04-11T12:32:57.089Z,14.28
2019-04-11T12:33:57.580Z,14.38
2019-04-11T12:34:57.728Z,14.29
2019-04-11T12:35:58.943Z,14.39
2019-04-11T12:36:56.938Z,14.43
2019-04-11T12:37:57.820Z,14.38
2019-04-11T12:38:56.665Z,14.39
2019-04-11T12:39:56.650Z,14.38
2019-04-11T12:40:56.651Z,14.28
2019-04-11T12:41:56.631Z,14.07
2019-04-11T12:42:56.639Z,14.17
2019-04-11T12:43:56.609Z,14.04
2019-04-11T12:44:59.333Z,14.16
2019-04-11T12:45:56.604Z,14.27
2019-04-11T12:46:56.577Z,14.35
2019-04-11T12:47:56.583Z,14.46
2019-04-11T12:48:56.551Z,14.60
2019-04-11T12:49:56.547Z,14.44
2019-04-11T12:50:56.543Z,14.39
2019-04-11T12:51:56.527Z,14.31
2019-04-11T12:52:56.544Z,14.07
2019-04-11T12:53:56.498Z,14.01
2019-04-11T12:54:56.491Z,14.02
2019-04-11T12:55:56.489Z,14.20
2019-04-11T12:56:56.467Z,14.37
2019-04-11T12:57:56.503Z,14.46
2019-04-11T12:58:56.446Z,14.38
2019-04-11T12:59:56.447Z,14.47
2019-04-11T13:00:56.436Z,14.49
2019-04-11T13:01:56.416Z,14.60
2019-04-11T13:02:56.401Z,14.72
2019-04-11T13:03:56.415Z,14.75
2019-04-11T13:04:56.382Z,14.90
2019-04-11T13:05:56.368Z,14.68
2019-04-11T13:06:56.359Z,14.61
2019-04-11T13:07:56.351Z,14.46
2019-04-11T13:08:56.363Z,14.31
2019-04-11T13:09:56.324Z,14.29
2019-04-11T13:10:56.319Z,14.14
2019-04-11T13:11:56.302Z,14.02
2019-04-11T13:12:56.291Z,14.16